Date,TemperatureHighF,TemperatureAvgF,TemperatureLowF,DewpointHighF,DewpointAvgF,DewpointLowF,HumidityHigh,HumidityAvg,HumidityLow,PressureMaxIn,PressureMinIn,WindSpeedMaxMPH,WindSpeedAvgMPH,GustSpeedMaxMPH,PrecipitationSumIn
2013-2-1,20,16,13,19,16,12,99,96,84,0.00,40.00,15,8,24,0.00
2013-2-2,22,17,13,22,17,12,99,98,93,0.00,40.00,9,4,15,0.00
2013-2-3,21,19,18,21,19,18,99,99,98,0.00,40.00,12,6,21,0.00
2013-2-4,26,21,17,26,20,15,99,98,88,0.00,40.00,9,3,20,0.00
2013-2-5,31,24,21,30,24,21,99,98,91,0.00,40.00,7,2,11,0.00
2013-2-6,32,25,15,29,22,15,99,88,59,0.00,40.00,9,2,17,0.00
2013-2-7,49,33,18,33,26,18,99,76,45,0.00,40.00,10,4,22,0.00
2013-2-8,38,31,23,38,30,23,99,97,86,0.00,40.00,16,5,25,0.00
2013-2-9,33,24,19,29,24,19,99,96,76,0.00,40.00,6,2,16,0.00
2013-2-10,50,35,15,31,24,15,99,68,33,0.00,40.00,11,4,24,0.00
2013-2-11,51,41,33,50,39,31,99,91,59,0.00,40.00,24,10,37,0.00
2013-2-12,33,31,25,31,30,25,99,95,90,0.00,40.00,14,5,27,0.00
2013-2-13,39,30,25,35,29,25,99,97,80,0.00,40.00,6,2,9,0.00
2013-2-14,40,34,25,40,34,25,99,99,94,0.00,40.00,17,6,26,0.00
2013-2-15,37,31,25,36,30,24,98,94,86,0.00,40.00,14,4,26,0.00
2013-2-16,31,25,20,25,22,16,99,88,58,0.00,40.00,6,2,9,0.00
2013-2-17,23,17,5,22,16,5,99,93,75,0.00,40.00,7,2,14,0.00
2013-2-18,46,26,3,33,18,3,99,76,53,0.00,40.00,14,6,28,0.00
2013-2-19,49,32,19,42,31,18,99,94,54,0.00,40.00,18,10,33,0.00
2013-2-20,24,19,16,20,18,15,99,93,77,0.00,40.00,16,7,23,0.00
2013-2-21,23,20,17,22,19,17,99,97,90,0.00,40.00,6,2,12,0.00
2013-2-22,39,30,18,39,29,18,99,98,93,0.00,40.00,12,6,24,0.00
2013-2-23,38,33,29,37,32,29,99,96,86,0.00,40.00,12,4,19,0.00
2013-2-24,32,29,26,32,29,26,99,98,97,0.00,40.00,12,4,18,0.00
2013-2-25,43,30,20,36,27,20,99,86,52,0.00,40.00,7,2,12,0.00
2013-2-26,40,34,26,37,31,25,99,92,72,0.00,40.00,16,6,31,0.00
2013-2-27,43,38,34,43,38,34,99,99,99,0.00,40.00,11,5,19,0.00
2013-2-28,35,33,31,35,33,31,99,99,99,0.00,40.00,9,4,16,0.00